Time;durP1;ratioP1;P1;durP2;ratioP2;P2;SDS_P1;SDS_P2;PMS_P1;PMS_P2;Temp;Humidity;BMP_temperature;BMP_pressure;BME280_temperature;BME280_humidity;BME280_pressure;Samples;Min_cycle;Max_cycle;Signal;HPM_P1;HPM_P2
2022/04/03 00:02:12;;;;;;;1.20;1.10;;;18.00;34.70;;;;;;5042256;28;20422;-58
2022/04/03 00:04:38;;;;;;;1.17;1.07;;;18.00;34.70;;;;;;5040116;28;20234;-58
2022/04/03 00:07:05;;;;;;;1.53;1.43;;;18.00;34.70;;;;;;5042862;28;20230;-58
2022/04/03 00:09:30;;;;;;;1.37;1.27;;;18.00;34.70;;;;;;5040271;28;20261;-58
2022/04/03 00:11:56;;;;;;;1.50;1.40;;;18.00;34.70;;;;;;5039731;28;20926;-57
2022/04/03 00:14:21;;;;;;;1.20;1.10;;;18.00;34.70;;;;;;5039953;28;20710;-57
2022/04/03 00:16:47;;;;;;;1.30;1.20;;;18.00;34.70;;;;;;5041444;28;20598;-57
2022/04/03 00:19:12;;;;;;;1.40;1.30;;;18.00;34.70;;;;;;5039908;28;20327;-58
2022/04/03 00:21:38;;;;;;;1.47;1.37;;;18.00;34.70;;;;;;5039231;28;20707;-58
2022/04/03 00:24:05;;;;;;;1.43;1.33;;;18.00;34.70;;;;;;5039052;28;20288;-58
2022/04/03 00:26:30;;;;;;;1.30;1.20;;;18.00;34.70;;;;;;5039791;28;20421;-58
2022/04/03 00:28:56;;;;;;;1.50;1.40;;;18.00;34.70;;;;;;5040823;28;20419;-58
2022/04/03 00:31:22;;;;;;;1.03;0.97;;;18.00;34.70;;;;;;5038595;28;20301;-58
2022/04/03 00:33:48;;;;;;;1.23;1.13;;;18.00;34.70;;;;;;5043184;28;20305;-58
2022/04/03 00:36:14;;;;;;;1.20;1.10;;;18.00;34.70;;;;;;5040014;28;20929;-57
2022/04/03 00:38:40;;;;;;;1.20;1.10;;;18.00;34.70;;;;;;5042248;28;20692;-58
2022/04/03 00:41:07;;;;;;;1.20;1.10;;;18.00;34.70;;;;;;5036936;28;20408;-59
2022/04/03 00:43:33;;;;;;;1.20;1.10;;;18.00;34.70;;;;;;5043580;28;20317;-58
2022/04/03 00:46:00;;;;;;;1.23;1.13;;;18.00;34.80;;;;;;5039475;28;20475;-58
2022/04/03 00:48:26;;;;;;;2.30;1.10;;;18.00;34.70;;;;;;5039689;28;20792;-58
2022/04/03 00:50:53;;;;;;;1.30;1.20;;;18.00;34.70;;;;;;5042641;28;20460;-58
2022/04/03 00:53:19;;;;;;;1.10;1.00;;;18.00;34.70;;;;;;5045538;28;21115;-58
2022/04/03 00:55:45;;;;;;;1.27;1.17;;;18.00;34.70;;;;;;5039868;28;20453;-58
2022/04/03 00:58:11;;;;;;;1.77;1.00;;;18.00;34.80;;;;;;5039573;28;20418;-58
2022/04/03 01:00:37;;;;;;;1.20;1.10;;;18.00;34.80;;;;;;5040559;28;20656;-58
2022/04/03 01:03:03;;;;;;;1.20;1.10;;;18.00;34.70;;;;;;5035613;28;20253;-57
2022/04/03 01:05:29;;;;;;;1.20;1.10;;;18.00;34.70;;;;;;5041319;28;20718;-59
2022/04/03 01:07:55;;;;;;;1.27;1.17;;;17.90;34.70;;;;;;5043852;28;20974;-58
2022/04/03 01:10:21;;;;;;;1.17;1.07;;;18.00;34.70;;;;;;5043673;28;20229;-60
2022/04/03 01:12:46;;;;;;;1.20;1.10;;;18.00;34.80;;;;;;5038439;28;20513;-59
2022/04/03 01:15:15;;;;;;;1.43;1.17;;;18.00;34.70;;;;;;5043809;28;20229;-59
2022/04/03 01:17:42;;;;;;;1.20;1.10;;;18.00;34.80;;;;;;5037836;28;20581;-59
2022/04/03 01:20:09;;;;;;;1.20;1.10;;;17.90;34.60;;;;;;5043506;28;20438;-58
2022/04/03 01:22:35;;;;;;;1.10;1.00;;;18.00;34.70;;;;;;5039437;28;20431;-59
2022/04/03 01:25:01;;;;;;;1.20;1.10;;;18.00;34.70;;;;;;5038066;28;20491;-58
2022/04/03 01:27:26;;;;;;;1.00;1.00;;;17.90;34.60;;;;;;5042320;28;20412;-58
2022/04/03 01:29:52;;;;;;;1.20;1.10;;;17.90;34.60;;;;;;5041191;28;20237;-58
2022/04/03 01:32:19;;;;;;;1.30;1.10;;;18.00;34.70;;;;;;5041224;28;20309;-59
2022/04/03 01:34:45;;;;;;;1.13;1.03;;;18.00;34.70;;;;;;5040875;28;20524;-59
2022/04/03 01:37:11;;;;;;;1.10;1.00;;;18.00;34.70;;;;;;5041461;28;20510;-58
2022/04/03 01:39:36;;;;;;;1.30;1.20;;;18.00;34.70;;;;;;5040598;28;20676;-58
2022/04/03 01:42:03;;;;;;;1.30;1.20;;;17.90;34.60;;;;;;5038433;28;20235;-58
2022/04/03 01:44:29;;;;;;;1.10;1.00;;;17.90;34.60;;;;;;5041169;28;20777;-59
2022/04/03 01:46:54;;;;;;;1.77;1.30;;;18.00;34.70;;;;;;5037020;28;20812;-58
2022/04/03 01:49:20;;;;;;;1.27;1.17;;;17.90;34.60;;;;;;5036686;28;20211;-59
2022/04/03 01:51:45;;;;;;;1.23;1.13;;;17.90;34.60;;;;;;5043796;28;20282;-58
2022/04/03 01:54:11;;;;;;;1.00;0.90;;;17.90;34.60;;;;;;5040744;28;20246;-58
2022/04/03 01:56:38;;;;;;;1.10;1.00;;;17.90;34.60;;;;;;5040161;28;20252;-58
2022/04/03 01:59:04;;;;;;;0.90;0.90;;;17.90;34.60;;;;;;5044391;28;20214;-58
2022/04/03 02:01:32;;;;;;;1.17;1.07;;;17.90;34.60;;;;;;5043455;28;20448;-58
2022/04/03 02:03:58;;;;;;;1.30;1.20;;;17.90;34.60;;;;;;5040233;28;20430;-58
2022/04/03 02:06:24;;;;;;;1.30;1.20;;;17.90;34.60;;;;;;5042035;28;20463;-58
2022/04/03 02:08:49;;;;;;;1.20;1.10;;;17.90;34.60;;;;;;5046808;28;20439;-58
2022/04/03 02:11:15;;;;;;;1.20;1.10;;;17.90;34.60;;;;;;5041190;28;20812;-61
2022/04/03 02:13:41;;;;;;;1.20;1.10;;;17.90;34.70;;;;;;5041196;28;20233;-59
2022/04/03 02:16:06;;;;;;;1.40;1.30;;;17.90;34.60;;;;;;5044738;28;20314;-60
2022/04/03 02:18:32;;;;;;;1.50;1.00;;;17.90;34.60;;;;;;5040257;28;20222;-59
2022/04/03 02:20:58;;;;;;;1.27;1.17;;;17.90;34.60;;;;;;5023953;28;20238;-60
2022/04/03 02:23:23;;;;;;;1.10;1.00;;;17.90;34.60;;;;;;5025795;28;20219;-59
2022/04/03 02:25:50;;;;;;;1.20;1.10;;;17.90;35.40;;;;;;5039134;28;20757;-60
2022/04/03 02:28:17;;;;;;;1.20;1.10;;;17.90;34.60;;;;;;5045134;28;20296;-60
2022/04/03 02:30:42;;;;;;;1.20;1.10;;;17.90;34.60;;;;;;5025086;28;20870;-60
2022/04/03 02:33:08;;;;;;;1.13;1.03;;;17.90;34.60;;;;;;5042062;28;20546;-60
2022/04/03 02:35:34;;;;;;;1.17;1.07;;;17.90;34.60;;;;;;5043699;28;20231;-59
2022/04/03 02:37:59;;;;;;;1.10;1.00;;;17.90;34.60;;;;;;5042712;28;20219;-59
2022/04/03 02:40:25;;;;;;;1.27;1.17;;;17.90;34.60;;;;;;5036200;28;20237;-60
2022/04/03 02:42:52;;;;;;;1.10;1.00;;;17.90;34.50;;;;;;5045196;28;20301;-60
2022/04/03 02:45:18;;;;;;;1.27;1.17;;;17.90;34.60;;;;;;5036029;28;20235;-59
2022/04/03 02:47:55;;;;;;;1.30;1.20;;;17.90;34.50;;;;;;5041870;28;20431;-60
2022/04/03 02:50:24;;;;;;;1.17;1.07;;;17.90;34.50;;;;;;5044261;28;21054;-60
2022/04/03 02:52:50;;;;;;;1.20;1.10;;;17.90;34.50;;;;;;5040432;28;20456;-60
2022/04/03 02:55:20;;;;;;;1.57;0.90;;;17.90;34.50;;;;;;5039753;28;20427;-59
2022/04/03 02:57:46;;;;;;;1.30;1.10;;;17.90;34.50;;;;;;5045561;28;20422;-59
2022/04/03 03:00:14;;;;;;;1.10;1.00;;;17.90;34.50;;;;;;5035135;28;20582;-59
2022/04/03 03:02:44;;;;;;;1.27;1.03;;;17.90;34.50;;;;;;5040563;28;20525;-59
2022/04/03 03:05:14;;;;;;;1.23;1.00;;;17.90;34.50;;;;;;5041249;28;20539;-60
2022/04/03 03:07:41;;;;;;;1.23;1.13;;;17.90;34.50;;;;;;5043971;28;20501;-60
2022/04/03 03:10:08;;;;;;;1.20;1.00;;;17.90;34.50;;;;;;5042343;28;20590;-60
2022/04/03 03:12:34;;;;;;;1.20;1.10;;;17.90;34.50;;;;;;5045206;28;20418;-60
2022/04/03 03:15:00;;;;;;;1.30;1.17;;;17.90;34.50;;;;;;5043590;28;20434;-59
2022/04/03 03:17:26;;;;;;;1.20;1.10;;;17.90;35.30;;;;;;5035176;28;20226;-60
2022/04/03 03:19:52;;;;;;;1.30;1.20;;;17.90;34.50;;;;;;5042516;28;20650;-59
2022/04/03 03:22:19;;;;;;;1.10;1.00;;;17.90;34.50;;;;;;5039224;28;20517;-60
2022/04/03 03:24:45;;;;;;;1.30;1.20;;;17.90;34.50;;;;;;5041806;28;20231;-60
2022/04/03 03:27:11;;;;;;;1.00;0.90;;;17.90;34.50;;;;;;5028514;28;20514;-60
2022/04/03 03:29:36;;;;;;;1.10;1.00;;;17.90;34.50;;;;;;5042567;28;20440;-60
2022/04/03 03:32:02;;;;;;;1.10;1.00;;;17.90;34.40;;;;;;5042542;28;20227;-60
2022/04/03 03:34:28;;;;;;;1.20;1.10;;;17.90;34.50;;;;;;5042409;28;20226;-60
2022/04/03 03:36:53;;;;;;;1.10;0.90;;;17.90;34.50;;;;;;5045239;28;20227;-60
2022/04/03 03:39:19;;;;;;;1.30;1.17;;;17.90;34.50;;;;;;5040186;28;20211;-60
2022/04/03 03:41:45;;;;;;;1.00;0.90;;;17.90;34.40;;;;;;5045760;28;20222;-61
2022/04/03 03:44:10;;;;;;;0.83;0.83;;;17.90;34.40;;;;;;5046891;28;20234;-61
2022/04/03 03:46:40;;;;;;;1.00;1.00;;;17.90;34.50;;;;;;5037863;28;20211;-60
2022/04/03 03:49:06;;;;;;;1.10;1.00;;;17.90;34.50;;;;;;5041043;28;20211;-60
2022/04/03 03:51:36;;;;;;;1.03;0.93;;;17.90;34.40;;;;;;5043340;28;20455;-60
2022/04/03 03:54:03;;;;;;;1.53;0.97;;;17.90;34.50;;;;;;5042263;28;20446;-60
2022/04/03 03:56:29;;;;;;;1.00;0.90;;;17.90;34.40;;;;;;5039842;28;20480;-60
2022/04/03 03:58:55;;;;;;;1.10;1.00;;;17.90;34.50;;;;;;5042399;28;20444;-60
2022/04/03 04:01:22;;;;;;;1.77;1.17;;;17.90;34.40;;;;;;5040211;28;20250;-60
2022/04/03 04:03:48;;;;;;;1.07;0.97;;;17.90;34.40;;;;;;5042975;28;20252;-60
2022/04/03 04:06:14;;;;;;;1.20;1.10;;;17.90;34.40;;;;;;5043017;28;20503;-60
2022/04/03 04:08:39;;;;;;;1.17;1.07;;;17.90;35.30;;;;;;5036052;28;20422;-61
2022/04/03 04:11:06;;;;;;;0.90;0.80;;;17.90;34.50;;;;;;5038279;28;20304;-61
2022/04/03 04:13:32;;;;;;;1.10;1.00;;;17.90;34.50;;;;;;5043373;28;20215;-60
2022/04/03 04:15:58;;;;;;;1.00;0.90;;;17.90;34.40;;;;;;5036381;28;20430;-60
2022/04/03 04:18:24;;;;;;;1.10;1.00;;;17.90;34.50;;;;;;5038577;28;20553;-60
2022/04/03 04:20:50;;;;;;;1.10;1.00;;;17.90;34.50;;;;;;5045273;28;20289;-60
2022/04/03 04:23:16;;;;;;;1.00;0.90;;;17.90;34.50;;;;;;5043592;28;20222;-60
2022/04/03 04:25:42;;;;;;;1.40;1.30;;;17.90;34.50;;;;;;5041069;28;20479;-60
2022/04/03 04:28:07;;;;;;;1.07;0.97;;;17.90;34.50;;;;;;5041986;28;20687;-61
2022/04/03 04:30:33;;;;;;;1.00;0.90;;;17.90;34.40;;;;;;5035597;28;20264;-61
2022/04/03 04:32:58;;;;;;;1.40;1.03;;;17.90;34.40;;;;;;5039547;28;20260;-61
2022/04/03 04:35:24;;;;;;;1.40;1.30;;;17.90;35.20;;;;;;5040098;28;20234;-60
2022/04/03 04:37:53;;;;;;;1.30;1.20;;;17.90;34.50;;;;;;5042999;28;20306;-61
2022/04/03 04:40:18;;;;;;;0.93;0.90;;;17.90;34.40;;;;;;5047665;28;20703;-60
2022/04/03 04:42:44;;;;;;;0.93;0.90;;;17.90;34.40;;;;;;5040836;28;20453;-61
2022/04/03 04:45:10;;;;;;;1.53;1.00;;;17.90;34.40;;;;;;5021029;28;20251;-60
2022/04/03 04:47:37;;;;;;;1.30;1.00;;;17.90;34.40;;;;;;5035812;28;20633;-60
2022/04/03 04:50:07;;;;;;;1.67;0.97;;;17.90;34.40;;;;;;5041485;28;20275;-61
2022/04/03 04:52:33;;;;;;;1.20;1.10;;;17.90;34.40;;;;;;5042140;28;20418;-60
2022/04/03 04:54:58;;;;;;;1.30;1.20;;;17.90;34.40;;;;;;5038541;28;20510;-60
2022/04/03 04:57:25;;;;;;;1.10;1.00;;;17.90;34.40;;;;;;5040415;28;20909;-61
2022/04/03 04:59:50;;;;;;;1.10;1.00;;;17.90;34.40;;;;;;5022604;28;20726;-61
2022/04/03 05:02:16;;;;;;;1.10;1.00;;;17.90;34.40;;;;;;5037441;28;20517;-60
2022/04/03 05:04:41;;;;;;;1.10;1.00;;;17.90;34.40;;;;;;5041563;28;20709;-60
2022/04/03 05:07:09;;;;;;;1.03;0.93;;;17.90;34.40;;;;;;5039379;28;20237;-61
2022/04/03 05:09:35;;;;;;;0.90;0.90;;;17.90;34.40;;;;;;5035427;28;20210;-60
2022/04/03 05:12:01;;;;;;;1.30;1.20;;;17.90;34.40;;;;;;5039524;28;20441;-59
2022/04/03 05:14:27;;;;;;;1.07;0.97;;;17.90;34.40;;;;;;5035183;28;20219;-60
2022/04/03 05:16:52;;;;;;;1.10;1.00;;;17.90;34.40;;;;;;5043570;28;20582;-60
2022/04/03 05:19:18;;;;;;;1.00;0.90;;;17.90;34.40;;;;;;5040822;28;20210;-59
2022/04/03 05:21:44;;;;;;;1.60;0.97;;;17.90;34.30;;;;;;5043658;28;20222;-60
2022/04/03 05:24:10;;;;;;;1.20;1.10;;;17.90;34.30;;;;;;5037382;28;20226;-60
2022/04/03 05:26:36;;;;;;;1.10;1.00;;;17.90;34.30;;;;;;5043299;28;20671;-60
2022/04/03 05:29:01;;;;;;;0.90;0.90;;;17.90;34.20;;;;;;5042930;28;20313;-59
2022/04/03 05:31:27;;;;;;;1.23;1.13;;;18.00;34.30;;;;;;5039843;28;20528;-59
2022/04/03 05:33:55;;;;;;;1.90;1.53;;;17.90;34.30;;;;;;5046358;28;20226;-60
2022/04/03 05:36:21;;;;;;;1.00;0.90;;;17.90;34.20;;;;;;5039743;28;20373;-59
2022/04/03 05:38:47;;;;;;;1.20;1.10;;;17.90;34.20;;;;;;5031158;28;20471;-60
2022/04/03 05:41:12;;;;;;;0.90;0.90;;;18.00;34.20;;;;;;5044752;28;20211;-62
2022/04/03 05:43:38;;;;;;;1.20;1.10;;;18.00;34.30;;;;;;5040754;28;20680;-61
2022/04/03 05:46:03;;;;;;;1.30;1.20;;;18.00;34.20;;;;;;5041076;28;20666;-61
2022/04/03 05:48:29;;;;;;;0.90;0.90;;;18.00;34.20;;;;;;5041583;28;20927;-60
2022/04/03 05:50:55;;;;;;;1.00;0.90;;;18.00;34.10;;;;;;5028236;28;20314;-60
2022/04/03 05:53:21;;;;;;;1.10;1.00;;;18.00;34.10;;;;;;5036623;28;20219;-62
2022/04/03 05:55:47;;;;;;;1.20;1.10;;;18.00;34.20;;;;;;5048056;28;20222;-61
2022/04/03 05:58:12;;;;;;;1.20;1.10;;;18.00;34.20;;;;;;5044338;28;20862;-60
2022/04/03 06:00:38;;;;;;;1.30;1.10;;;18.00;34.10;;;;;;5041146;28;20455;-60
2022/04/03 06:03:04;;;;;;;1.10;1.00;;;18.00;34.10;;;;;;5038293;28;20243;-59
2022/04/03 06:05:32;;;;;;;1.10;1.00;;;18.00;34.10;;;;;;5047247;28;20636;-59
2022/04/03 06:07:58;;;;;;;1.20;1.10;;;18.00;34.10;;;;;;5041621;28;20234;-60
2022/04/03 06:10:25;;;;;;;1.00;0.90;;;18.00;34.10;;;;;;5042602;28;20926;-59
2022/04/03 06:12:55;;;;;;;1.30;1.20;;;18.00;34.90;;;;;;5040128;28;20426;-61
2022/04/03 06:15:22;;;;;;;1.07;0.97;;;18.00;34.10;;;;;;5044813;28;20422;-62
2022/04/03 06:17:49;;;;;;;1.03;0.93;;;18.00;34.10;;;;;;5042782;28;20818;-61
2022/04/03 06:20:14;;;;;;;1.20;1.10;;;18.00;34.90;;;;;;5042748;28;20448;-60
2022/04/03 06:22:40;;;;;;;1.93;1.20;;;18.00;34.10;;;;;;5042066;28;20992;-61
2022/04/03 06:25:07;;;;;;;4.00;1.30;;;18.00;34.10;;;;;;5038452;28;20238;-60
2022/04/03 06:27:34;;;;;;;1.13;1.03;;;18.00;34.10;;;;;;5043047;28;20314;-61
2022/04/03 06:29:59;;;;;;;2.27;1.30;;;18.00;34.00;;;;;;5041734;28;20509;-59
2022/04/03 06:32:25;;;;;;;1.83;1.33;;;18.00;34.10;;;;;;5045040;28;20855;-61
2022/04/03 06:34:51;;;;;;;1.17;1.07;;;18.00;34.10;;;;;;5043653;28;20237;-58
2022/04/03 06:37:17;;;;;;;1.00;0.90;;;18.10;34.10;;;;;;5040496;28;20261;-59
2022/04/03 06:39:42;;;;;;;2.93;1.13;;;18.10;34.10;;;;;;5039733;28;20223;-59
2022/04/03 06:42:09;;;;;;;1.20;1.10;;;18.00;34.00;;;;;;5045281;28;20418;-58
2022/04/03 06:44:35;;;;;;;1.10;1.00;;;18.10;34.10;;;;;;5040401;28;20244;-57
2022/04/03 06:47:01;;;;;;;1.80;1.17;;;18.10;34.10;;;;;;5023951;28;20438;-59
2022/04/03 06:49:29;;;;;;;1.30;1.20;;;18.10;34.10;;;;;;5041518;28;20226;-59
2022/04/03 06:51:55;;;;;;;1.10;1.00;;;18.00;34.00;;;;;;5037582;28;20226;-58
2022/04/03 06:54:21;;;;;;;0.80;0.80;;;18.00;34.00;;;;;;5041543;28;20472;-59
2022/04/03 06:56:46;;;;;;;1.00;1.00;;;18.10;34.10;;;;;;5044635;28;20683;-60
2022/04/03 06:59:12;;;;;;;1.30;1.20;;;18.00;34.00;;;;;;5042702;28;20226;-60
2022/04/03 07:01:38;;;;;;;1.13;1.03;;;18.00;34.00;;;;;;5040927;28;20871;-60
2022/04/03 07:04:04;;;;;;;1.30;1.20;;;18.00;34.00;;;;;;5039037;28;20242;-60
2022/04/03 07:06:29;;;;;;;1.93;1.10;;;18.00;34.00;;;;;;5041025;28;20279;-60
2022/04/03 07:08:55;;;;;;;1.40;1.30;;;18.10;34.90;;;;;;5037810;28;20527;-60
2022/04/03 07:11:20;;;;;;;1.50;1.13;;;18.00;34.00;;;;;;5042456;28;20265;-60
2022/04/03 07:13:46;;;;;;;1.20;1.10;;;18.00;34.00;;;;;;5044856;28;20223;-61
2022/04/03 07:16:11;;;;;;;1.40;1.30;;;18.00;34.00;;;;;;5037181;28;21529;-60
2022/04/03 07:18:37;;;;;;;1.20;1.10;;;18.00;34.00;;;;;;5040204;28;20229;-60
2022/04/03 07:21:03;;;;;;;1.10;1.00;;;18.00;34.00;;;;;;5043236;28;20218;-59
2022/04/03 07:23:29;;;;;;;1.17;1.07;;;18.00;34.00;;;;;;5040313;28;20614;-60
2022/04/03 07:25:54;;;;;;;1.40;1.17;;;18.00;34.00;;;;;;5043209;28;21131;-60
2022/04/03 07:28:20;;;;;;;1.20;1.10;;;18.00;34.00;;;;;;5038299;28;20238;-60
2022/04/03 07:30:45;;;;;;;1.30;1.20;;;18.00;34.10;;;;;;5042155;28;20672;-61
2022/04/03 07:33:11;;;;;;;2.70;1.47;;;18.00;34.00;;;;;;5042170;28;20230;-60
2022/04/03 07:35:37;;;;;;;1.20;1.10;;;18.00;34.00;;;;;;5041577;28;20222;-60
2022/04/03 07:38:04;;;;;;;1.20;1.10;;;18.00;34.00;;;;;;5038909;28;20230;-60
2022/04/03 07:40:30;;;;;;;2.20;1.20;;;18.00;34.00;;;;;;5043010;28;20518;-60
2022/04/03 07:42:56;;;;;;;1.10;1.00;;;18.00;34.00;;;;;;5042159;28;20491;-57
2022/04/03 07:45:22;;;;;;;1.33;1.00;;;18.00;34.10;;;;;;5035548;28;20947;-57
2022/04/03 07:47:50;;;;;;;1.07;0.97;;;18.00;34.00;;;;;;5041645;28;20939;-58
2022/04/03 07:50:18;;;;;;;1.27;1.17;;;18.00;34.10;;;;;;5039825;28;20455;-57
2022/04/03 07:52:45;;;;;;;1.20;1.10;;;18.00;34.10;;;;;;5040223;28;20820;-58
2022/04/03 07:55:11;;;;;;;1.40;1.13;;;18.00;34.10;;;;;;5040227;28;20580;-57
2022/04/03 07:57:40;;;;;;;1.20;1.10;;;18.00;34.10;;;;;;5040858;28;20572;-58
2022/04/03 08:00:10;;;;;;;1.33;0.97;;;18.00;34.10;;;;;;5041659;28;20287;-58
2022/04/03 08:02:37;;;;;;;1.73;1.17;;;18.00;34.10;;;;;;5044785;28;20522;-57
2022/04/03 08:05:03;;;;;;;3.33;1.27;;;18.00;34.10;;;;;;5040086;28;20803;-59
2022/04/03 08:07:41;;;;;;;1.90;1.00;;;18.00;34.10;;;;;;5037023;28;20428;-59
2022/04/03 08:10:08;;;;;;;2.07;1.20;;;18.00;34.20;;;;;;5040342;28;20426;-60
2022/04/03 08:12:35;;;;;;;0.97;0.90;;;18.00;34.10;;;;;;5039303;28;20493;-62
2022/04/03 08:15:01;;;;;;;1.20;1.10;;;18.10;34.20;;;;;;5042006;28;20446;-62
2022/04/03 08:17:27;;;;;;;1.73;1.10;;;18.10;34.20;;;;;;5038599;28;20444;-62
2022/04/03 08:19:53;;;;;;;1.10;1.00;;;18.10;34.20;;;;;;5041599;28;20427;-58
2022/04/03 08:22:19;;;;;;;1.53;1.30;;;18.10;34.20;;;;;;5036275;28;21021;-61
2022/04/03 08:24:44;;;;;;;2.07;1.00;;;18.10;34.10;;;;;;5042220;28;20325;-64
2022/04/03 08:27:12;;;;;;;1.10;1.00;;;18.10;34.10;;;;;;5041194;28;20715;-63
2022/04/03 08:29:38;;;;;;;1.20;1.10;;;18.10;34.20;;;;;;5038133;28;20227;-61
2022/04/03 08:32:03;;;;;;;1.30;1.20;;;18.10;34.10;;;;;;5040299;28;20448;-61
2022/04/03 08:34:29;;;;;;;2.53;1.07;;;18.10;34.10;;;;;;5041249;28;20952;-61
2022/04/03 08:36:55;;;;;;;1.23;1.13;;;18.10;34.20;;;;;;5041156;28;20226;-60
2022/04/03 08:39:20;;;;;;;1.50;1.17;;;18.10;34.10;;;;;;5027139;28;20305;-60
2022/04/03 08:41:46;;;;;;;1.87;1.00;;;18.10;34.20;;;;;;5039342;28;20226;-61
2022/04/03 08:44:12;;;;;;;1.20;1.10;;;18.10;34.10;;;;;;5038084;28;20349;-60
2022/04/03 08:46:43;;;;;;;1.30;1.20;;;18.10;34.20;;;;;;5042697;28;20510;-61
2022/04/03 08:49:10;;;;;;;2.37;1.20;;;18.10;34.20;;;;;;5044856;28;20533;-60
2022/04/03 08:51:39;;;;;;;2.00;1.00;;;18.10;34.10;;;;;;5041338;28;20423;-60
2022/04/03 08:54:06;;;;;;;1.40;1.20;;;18.10;34.20;;;;;;5037125;28;20468;-59
2022/04/03 08:56:31;;;;;;;1.53;1.03;;;18.10;34.20;;;;;;5038456;28;20514;-60
2022/04/03 08:58:57;;;;;;;1.37;1.10;;;18.10;34.20;;;;;;5036527;28;20521;-60
2022/04/03 09:01:24;;;;;;;3.23;1.10;;;18.10;34.20;;;;;;5036867;28;20218;-60
2022/04/03 09:03:50;;;;;;;1.60;1.20;;;18.10;34.20;;;;;;5041624;28;20925;-60
2022/04/03 09:06:18;;;;;;;1.50;1.20;;;18.10;34.20;;;;;;5041329;28;20802;-61
2022/04/03 09:08:47;;;;;;;1.20;1.10;;;18.10;34.20;;;;;;5024308;28;20944;-60
2022/04/03 09:11:13;;;;;;;1.73;1.10;;;18.10;34.20;;;;;;5024687;28;20505;-60
2022/04/03 09:13:39;;;;;;;2.03;1.10;;;18.10;34.20;;;;;;5038522;28;20427;-60
2022/04/03 09:16:06;;;;;;;1.10;1.00;;;18.10;34.20;;;;;;5038769;28;20231;-60
2022/04/03 09:19:01;;;;;;;1.33;1.10;;;18.10;34.20;;;;;;5041628;28;20563;-60
2022/04/03 09:21:28;;;;;;;12.40;2.07;;;18.10;34.70;;;;;;5026792;28;20437;-60
2022/04/03 09:24:11;;;;;;;1.37;1.20;;;18.10;34.20;;;;;;5037639;28;20444;-60
2022/04/03 09:26:39;;;;;;;2.73;1.10;;;18.10;34.20;;;;;;5041891;28;20434;-60
2022/04/03 09:29:25;;;;;;;1.00;0.90;;;18.00;34.10;;;;;;5044534;28;20468;-60
2022/04/03 09:32:01;;;;;;;1.47;1.30;;;18.10;34.20;;;;;;5040145;28;20480;-60
2022/04/03 09:34:29;;;;;;;1.10;0.90;;;18.10;34.20;;;;;;5039877;28;20516;-59
2022/04/03 09:37:05;;;;;;;1.33;1.23;;;18.00;34.10;;;;;;5039876;28;20476;-60
2022/04/03 09:39:31;;;;;;;5.57;1.37;;;18.00;34.10;;;;;;5040596;28;20442;-60
2022/04/03 09:42:04;;;;;;;5.73;1.17;;;18.00;34.10;;;;;;5038166;28;20430;-59
2022/04/03 09:44:38;;;;;;;1.00;0.90;;;18.00;34.10;;;;;;5032993;28;20803;-60
2022/04/03 09:47:19;;;;;;;1.27;1.00;;;18.00;34.10;;;;;;5042728;28;20430;-60
2022/04/03 09:49:52;;;;;;;1.27;1.17;;;18.00;34.10;;;;;;5040557;28;20463;-60
2022/04/03 09:52:37;;;;;;;1.20;1.10;;;18.00;34.10;;;;;;5036403;28;20431;-61
2022/04/03 09:55:23;;;;;;;1.40;1.07;;;18.00;34.20;;;;;;5040226;28;20568;-61
2022/04/03 09:58:12;;;;;;;2.33;1.47;;;18.00;34.10;;;;;;5037010;28;20425;-61
2022/04/03 10:00:38;;;;;;;1.30;1.20;;;18.00;34.10;;;;;;5033269;28;20414;-60
2022/04/03 10:03:04;;;;;;;1.13;1.03;;;18.00;34.10;;;;;;5040745;28;20422;-60
2022/04/03 10:05:36;;;;;;;1.30;1.00;;;18.00;34.10;;;;;;5043805;28;20291;-61
2022/04/03 10:08:04;;;;;;;1.43;1.20;;;18.00;34.10;;;;;;5058341;28;20694;-60
2022/04/03 10:10:31;;;;;;;1.13;1.03;;;18.00;34.20;;;;;;5060222;28;20800;-60
2022/04/03 10:13:02;;;;;;;2.10;1.00;;;18.00;34.10;;;;;;5056955;28;20975;-60
2022/04/03 10:15:28;;;;;;;1.23;1.07;;;18.00;34.10;;;;;;5061924;28;20421;-60
2022/04/03 10:17:55;;;;;;;1.10;1.00;;;18.00;34.10;;;;;;5061549;28;20445;-61
2022/04/03 10:20:28;;;;;;;1.70;1.07;;;18.00;34.10;;;;;;5059389;28;20418;-59
2022/04/03 10:23:14;;;;;;;1.23;1.13;;;18.00;34.10;;;;;;5066377;28;20428;-60
2022/04/03 10:25:44;;;;;;;2.20;1.00;;;18.00;34.10;;;;;;5060983;28;20467;-61
2022/04/03 10:28:12;;;;;;;3.43;1.40;;;18.00;34.10;;;;;;5065175;28;20913;-61
2022/04/03 10:30:44;;;;;;;1.67;1.10;;;18.00;34.10;;;;;;5060929;28;20421;-61
2022/04/03 10:33:20;;;;;;;1.20;1.10;;;18.00;34.10;;;;;;5063923;28;20448;-60
2022/04/03 10:36:01;;;;;;;1.07;0.97;;;18.00;34.10;;;;;;5059265;28;20938;-60
2022/04/03 10:38:44;;;;;;;1.20;0.90;;;18.00;34.10;;;;;;5066662;28;20447;-60
2022/04/03 10:41:30;;;;;;;1.20;1.10;;;18.00;34.10;;;;;;5063786;28;20421;-60
2022/04/03 10:44:25;;;;;;;1.23;1.07;;;18.00;34.10;;;;;;5065426;28;20445;-60
2022/04/03 10:47:05;;;;;;;1.27;1.17;;;18.00;34.10;;;;;;5063570;28;20434;-60
2022/04/03 10:49:37;;;;;;;1.37;1.03;;;18.00;34.20;;;;;;5057256;28;20437;-61
2022/04/03 10:52:03;;;;;;;1.20;1.10;;;18.00;34.10;;;;;;5058070;28;20466;-61
2022/04/03 10:54:30;;;;;;;1.10;1.00;;;18.00;34.10;;;;;;5061098;28;20939;-60
2022/04/03 10:57:35;;;;;;;2.23;1.00;;;18.00;34.20;;;;;;5056955;28;20446;-60
2022/04/03 11:00:13;;;;;;;1.77;1.20;;;18.00;34.10;;;;;;5062888;28;20421;-60
2022/04/03 11:02:39;;;;;;;2.60;1.37;;;18.00;34.10;;;;;;5064156;28;20774;-60
2022/04/03 11:05:26;;;;;;;1.23;1.10;;;18.00;34.20;;;;;;5065558;28;20436;-61
2022/04/03 11:07:53;;;;;;;1.57;1.47;;;18.00;34.20;;;;;;5061729;28;20458;-60
2022/04/03 11:10:52;;;;;;;1.30;1.20;;;18.00;34.20;;;;;;5063712;28;20426;-60
2022/04/03 11:13:21;;;;;;;1.10;1.00;;;17.90;34.10;;;;;;5058526;28;20487;-61
2022/04/03 11:15:55;;;;;;;1.13;1.03;;;18.00;34.30;;;;;;5062504;28;20495;-59
2022/04/03 11:18:37;;;;;;;2.63;1.10;;;18.00;34.20;;;;;;5062197;28;20436;-60
2022/04/03 11:21:11;;;;;;;1.20;1.03;;;18.00;34.20;;;;;;5062902;28;20429;-60
2022/04/03 11:24:04;;;;;;;2.50;1.10;;;17.90;34.20;;;;;;5060444;28;20432;-62
2022/04/03 11:26:30;;;;;;;1.37;1.20;;;17.90;34.20;;;;;;5060955;28;20873;-60
2022/04/03 11:28:55;;;;;;;1.83;0.90;;;17.90;34.20;;;;;;5063104;28;20457;-59
2022/04/03 11:31:24;;;;;;;1.43;1.07;;;17.90;34.20;;;;;;5058791;28;20457;-59
2022/04/03 11:33:50;;;;;;;1.27;1.17;;;17.90;34.20;;;;;;5063295;28;20426;-60
2022/04/03 11:36:26;;;;;;;1.10;1.00;;;18.00;34.30;;;;;;5057278;28;21023;-60
2022/04/03 11:38:52;;;;;;;1.37;1.27;;;17.90;34.30;;;;;;5066164;28;20951;-60
2022/04/03 11:41:29;;;;;;;2.13;1.10;;;17.90;34.40;;;;;;5062803;28;20525;-59
2022/04/03 11:44:07;;;;;;;1.23;1.13;;;18.00;34.30;;;;;;5065277;28;20444;-60
2022/04/03 11:46:48;;;;;;;1.20;1.10;;;17.90;34.30;;;;;;5062494;28;20502;-60
2022/04/03 11:49:17;;;;;;;1.30;1.20;;;18.00;34.40;;;;;;5060831;28;20449;-60
2022/04/03 11:51:45;;;;;;;7.13;1.40;;;17.90;34.30;;;;;;5060810;28;20458;-61
2022/04/03 11:54:15;;;;;;;1.30;1.20;;;18.00;34.40;;;;;;5061375;28;20413;-59
2022/04/03 11:56:41;;;;;;;1.40;1.10;;;17.90;34.40;;;;;;5060383;28;20410;-60
2022/04/03 11:59:18;;;;;;;1.17;1.03;;;17.90;34.30;;;;;;5060217;28;20496;-59
2022/04/03 12:01:51;;;;;;;1.27;1.10;;;17.90;34.30;;;;;;5060880;28;20451;-58
2022/04/03 12:04:18;;;;;;;1.30;1.10;;;18.00;34.40;;;;;;5061375;28;20517;-59
2022/04/03 12:06:49;;;;;;;1.03;0.93;;;17.90;34.40;;;;;;5057727;28;20450;-59
2022/04/03 12:09:21;;;;;;;1.30;1.17;;;18.00;34.40;;;;;;5060845;28;21002;-58
2022/04/03 12:11:50;;;;;;;1.20;1.10;;;18.00;34.40;;;;;;5054607;28;20422;-59
2022/04/03 12:14:30;;;;;;;1.20;1.10;;;17.90;34.30;;;;;;5059907;28;20439;-60
2022/04/03 12:17:00;;;;;;;1.13;1.03;;;17.90;34.30;;;;;;5059828;28;20418;-58
2022/04/03 12:19:27;;;;;;;1.63;1.00;;;17.90;34.30;;;;;;5063007;28;20819;-61
2022/04/03 12:21:56;;;;;;;1.20;1.10;;;17.90;34.30;;;;;;5060107;28;21382;-60
2022/04/03 12:24:30;;;;;;;2.33;1.00;;;18.00;34.50;;;;;;5061445;28;21082;-62
2022/04/03 12:27:00;;;;;;;1.30;1.20;;;17.90;34.30;;;;;;5065647;28;20443;-61
2022/04/03 12:29:32;;;;;;;1.30;1.20;;;18.00;34.40;;;;;;5057063;28;20422;-59
2022/04/03 12:32:08;;;;;;;1.30;1.20;;;18.00;34.50;;;;;;5060894;28;20489;-61
2022/04/03 12:34:36;;;;;;;1.40;1.30;;;17.90;34.30;;;;;;5055029;28;20878;-59
2022/04/03 12:37:04;;;;;;;1.50;1.30;;;18.00;34.50;;;;;;5064578;28;20459;-60
2022/04/03 12:39:33;;;;;;;1.20;1.10;;;18.00;34.50;;;;;;5063665;28;20427;-60
2022/04/03 12:42:25;;;;;;;1.30;1.20;;;18.00;34.70;;;;;;5056550;28;20448;-59
2022/04/03 12:44:57;;;;;;;1.70;1.60;;;18.00;34.50;;;;;;5059456;28;20446;-59
2022/04/03 12:47:41;;;;;;;1.63;1.20;;;18.00;34.50;;;;;;5076192;28;20467;-60
2022/04/03 12:50:06;;;;;;;1.27;1.17;;;18.00;34.50;;;;;;5060907;28;20433;-59
2022/04/03 12:52:43;;;;;;;1.40;1.30;;;17.90;34.50;;;;;;5065612;28;20459;-61
2022/04/03 12:55:32;;;;;;;1.20;1.10;;;18.00;34.50;;;;;;5059301;28;20217;-59